BANCO CHINCHORRO MX current weather conditions

sailwx.info

Wind from 082 at 8 knots gusting 15

Air temperature 30.7° C
Dewpoint 25.4° C

Last reported at 2020-Jul-14 21:45 UTC.
Time now 2020-Jul-14 23:09 UTC

Location: N 18°45' W 087°18'.
View on Google Maps.

See reports from other nearby stations

  
Tides and Currents Weather Stations Pressure Air Temp Water Temp Dewpoint Dewpoint Depression Visibility Wind Speed Wind Dir Waves Ship Positions
date/time (UTC)wind fromknots sea level pressurealtimeterstation pressurevisibilityair tempwater tempwave heightnotes
2020-Jul-14 21:45 082 8 gusting 15 30.7
2020-Jul-14 20:45 067 3 gusting 7 31.9
2020-Jul-14 19:45 090 7 gusting 12 27.5
2020-Jul-14 18:45 097 12 gusting 19 26.2
2020-Jul-14 17:45 157 7 gusting 15 32.0
2020-Jul-14 07:45 28.6
2020-Jul-14 06:45 28.6
2020-Jul-14 05:45
2020-Jul-14 04:45 106 9 28.8
2020-Jul-14 03:45 106 9 gusting 15 28.8
2020-Jul-14 02:45 104 9 gusting 12 28.9
2020-Jul-14 01:45 091 8 gusting 12 29.1
2020-Jul-14 00:45 092 8 gusting 13 29.3
2020-Jul-13 23:45 100 7 gusting 12 30.1
2020-Jul-13 22:45 119 4 gusting 9 32.0
2020-Jul-13 21:45 129 5 gusting 11 33.5
2020-Jul-13 20:45 131 5 gusting 12 34.1
2020-Jul-13 19:45 117 5 gusting 10 32.7
2020-Jul-13 18:45 109 7 gusting 12 32.6
2020-Jul-13 17:45 102 5 gusting 8 33.3
2020-Jul-13 16:45 113 4 gusting 7 33.3
2020-Jul-13 15:45 128 4 gusting 8 33.9
2020-Jul-13 14:45 112 4 gusting 8 32.1
2020-Jul-13 13:45 135 3 gusting 9 31.7
2020-Jul-13 12:45 135 4 gusting 8 28.8
2020-Jul-13 11:45 138 4 gusting 9 28.1
2020-Jul-13 10:45 137 5 gusting 9 28.0
2020-Jul-13 09:45 132 4 gusting 10 28.3
2020-Jul-13 08:45 130 5 gusting 12 28.5
2020-Jul-13 07:45 122 4 gusting 9 28.3
2020-Jul-13 06:45 119 4 gusting 8 28.6
2020-Jul-13 05:45 115 5 gusting 10 28.8
2020-Jul-13 04:45 108 7 gusting 12 28.9
2020-Jul-13 03:45 107 8 gusting 13 29.0
2020-Jul-13 02:45 102 8 gusting 13 29.1
2020-Jul-13 01:45 092 8 gusting 12 29.2
2020-Jul-13 00:45 103 6 gusting 9 29.3
2020-Jul-12 23:45 095 6 gusting 10 30.2